<?xml version="1.0" encoding="UTF-8" standalone="no" ?>
<gpx xmlns="http://www.topografix.com/GPX/1/1" xmlns:xsi="http://www.w3.org/2001/XMLSchema-instance" xsi:schemaLocation="http://www.topografix.com/GPX/1/1 http://www.topografix.com/GPX/1/1/gpx.xsd" version="1.1" creator="VisuGPX - https://www.visugpx.com">
  <metadata>
    <name>chapelle St fereol</name>
    <desc><![CDATA[ne pas tenir compte du temps, du way pont non plus]]></desc>
  </metadata>
  <wpt lat="44.62693" lon="3.52408">
    <ele>1307</ele>
    <name><![CDATA[ruisseau milieu chemin]]></name>
  </wpt>
  <trk>
    <name><![CDATA[chapelle St fereol
]]></name>
    <trkseg>
      <trkpt lat="44.62192" lon="3.53479">
        <ele>1275</ele>
        <time>2021-04-15T11:31:59+02:00</time>
      </trkpt>
      <trkpt lat="44.62193" lon="3.53447">
        <ele>1278</ele>
        <time>2021-04-15T11:32:43+02:00</time>
      </trkpt>
      <trkpt lat="44.62199" lon="3.53415">
        <ele>1277</ele>
        <time>2021-04-15T11:33:03+02:00</time>
      </trkpt>
      <trkpt lat="44.62209" lon="3.53386">
        <ele>1276</ele>
        <time>2021-04-15T11:33:20+02:00</time>
      </trkpt>
      <trkpt lat="44.62214" lon="3.53355">
        <ele>1273</ele>
        <time>2021-04-15T11:33:36+02:00</time>
      </trkpt>
      <trkpt lat="44.62216" lon="3.53324">
        <ele>1273</ele>
        <time>2021-04-15T11:33:52+02:00</time>
      </trkpt>
      <trkpt lat="44.62222" lon="3.53292">
        <ele>1270</ele>
        <time>2021-04-15T11:34:08+02:00</time>
      </trkpt>
      <trkpt lat="44.62222" lon="3.53258">
        <ele>1269</ele>
        <time>2021-04-15T11:34:24+02:00</time>
      </trkpt>
      <trkpt lat="44.62225" lon="3.53225">
        <ele>1268</ele>
        <time>2021-04-15T11:34:42+02:00</time>
      </trkpt>
      <trkpt lat="44.62228" lon="3.53193">
        <ele>1268</ele>
        <time>2021-04-15T11:35:01+02:00</time>
      </trkpt>
      <trkpt lat="44.62225" lon="3.5316">
        <ele>1269</ele>
        <time>2021-04-15T11:35:22+02:00</time>
      </trkpt>
      <trkpt lat="44.6222" lon="3.53129">
        <ele>1268</ele>
        <time>2021-04-15T11:35:40+02:00</time>
      </trkpt>
      <trkpt lat="44.6222" lon="3.53096">
        <ele>1268</ele>
        <time>2021-04-15T11:35:56+02:00</time>
      </trkpt>
      <trkpt lat="44.62223" lon="3.53065">
        <ele>1268</ele>
        <time>2021-04-15T11:36:11+02:00</time>
      </trkpt>
      <trkpt lat="44.62231" lon="3.53033">
        <ele>1268</ele>
        <time>2021-04-15T11:36:27+02:00</time>
      </trkpt>
      <trkpt lat="44.62242" lon="3.53005">
        <ele>1267</ele>
        <time>2021-04-15T11:36:45+02:00</time>
      </trkpt>
      <trkpt lat="44.62261" lon="3.52985">
        <ele>1269</ele>
        <time>2021-04-15T11:37:02+02:00</time>
      </trkpt>
      <trkpt lat="44.62283" lon="3.52982">
        <ele>1270</ele>
        <time>2021-04-15T11:37:18+02:00</time>
      </trkpt>
      <trkpt lat="44.62306" lon="3.52971">
        <ele>1272</ele>
        <time>2021-04-15T11:37:35+02:00</time>
      </trkpt>
      <trkpt lat="44.62322" lon="3.52947">
        <ele>1275</ele>
        <time>2021-04-15T11:37:53+02:00</time>
      </trkpt>
      <trkpt lat="44.62339" lon="3.52925">
        <ele>1277</ele>
        <time>2021-04-15T11:38:09+02:00</time>
      </trkpt>
      <trkpt lat="44.62349" lon="3.52895">
        <ele>1279</ele>
        <time>2021-04-15T11:38:26+02:00</time>
      </trkpt>
      <trkpt lat="44.62351" lon="3.52863">
        <ele>1282</ele>
        <time>2021-04-15T11:38:43+02:00</time>
      </trkpt>
      <trkpt lat="44.62353" lon="3.5283">
        <ele>1284</ele>
        <time>2021-04-15T11:39:01+02:00</time>
      </trkpt>
      <trkpt lat="44.62355" lon="3.52799">
        <ele>1286</ele>
        <time>2021-04-15T11:39:18+02:00</time>
      </trkpt>
      <trkpt lat="44.62357" lon="3.52765">
        <ele>1288</ele>
        <time>2021-04-15T11:39:36+02:00</time>
      </trkpt>
      <trkpt lat="44.62363" lon="3.52733">
        <ele>1290</ele>
        <time>2021-04-15T11:39:54+02:00</time>
      </trkpt>
      <trkpt lat="44.62374" lon="3.52705">
        <ele>1292</ele>
        <time>2021-04-15T11:40:11+02:00</time>
      </trkpt>
      <trkpt lat="44.62388" lon="3.52678">
        <ele>1294</ele>
        <time>2021-04-15T11:40:29+02:00</time>
      </trkpt>
      <trkpt lat="44.624" lon="3.5265">
        <ele>1299</ele>
        <time>2021-04-15T11:40:49+02:00</time>
      </trkpt>
      <trkpt lat="44.62413" lon="3.52622">
        <ele>1303</ele>
        <time>2021-04-15T11:41:08+02:00</time>
      </trkpt>
      <trkpt lat="44.62428" lon="3.52598">
        <ele>1305</ele>
        <time>2021-04-15T11:41:25+02:00</time>
      </trkpt>
      <trkpt lat="44.62449" lon="3.52582">
        <ele>1308</ele>
        <time>2021-04-15T11:41:44+02:00</time>
      </trkpt>
      <trkpt lat="44.62471" lon="3.52571">
        <ele>1311</ele>
        <time>2021-04-15T11:42:01+02:00</time>
      </trkpt>
      <trkpt lat="44.62493" lon="3.52563">
        <ele>1314</ele>
        <time>2021-04-15T11:42:19+02:00</time>
      </trkpt>
      <trkpt lat="44.62515" lon="3.52556">
        <ele>1315</ele>
        <time>2021-04-15T11:42:35+02:00</time>
      </trkpt>
      <trkpt lat="44.62537" lon="3.52546">
        <ele>1316</ele>
        <time>2021-04-15T11:42:51+02:00</time>
      </trkpt>
      <trkpt lat="44.62555" lon="3.52523">
        <ele>1316</ele>
        <time>2021-04-15T11:43:07+02:00</time>
      </trkpt>
      <trkpt lat="44.62571" lon="3.52499">
        <ele>1314</ele>
        <time>2021-04-15T11:43:23+02:00</time>
      </trkpt>
      <trkpt lat="44.62588" lon="3.52477">
        <ele>1312</ele>
        <time>2021-04-15T11:43:38+02:00</time>
      </trkpt>
      <trkpt lat="44.62609" lon="3.52463">
        <ele>1311</ele>
        <time>2021-04-15T11:43:54+02:00</time>
      </trkpt>
      <trkpt lat="44.6263" lon="3.5245">
        <ele>1309</ele>
        <time>2021-04-15T11:44:09+02:00</time>
      </trkpt>
      <trkpt lat="44.62652" lon="3.5244">
        <ele>1309</ele>
        <time>2021-04-15T11:44:25+02:00</time>
      </trkpt>
      <trkpt lat="44.62672" lon="3.52424">
        <ele>1308</ele>
        <time>2021-04-15T11:44:40+02:00</time>
      </trkpt>
      <trkpt lat="44.62693" lon="3.52408">
        <ele>1307</ele>
        <time>2021-04-15T11:44:56+02:00</time>
      </trkpt>
      <trkpt lat="44.62709" lon="3.52385">
        <ele>1304</ele>
        <time>2021-04-15T11:48:03+02:00</time>
      </trkpt>
      <trkpt lat="44.62725" lon="3.52363">
        <ele>1304</ele>
        <time>2021-04-15T11:48:20+02:00</time>
      </trkpt>
      <trkpt lat="44.62742" lon="3.5234">
        <ele>1306</ele>
        <time>2021-04-15T11:48:35+02:00</time>
      </trkpt>
      <trkpt lat="44.62757" lon="3.52315">
        <ele>1306</ele>
        <time>2021-04-15T11:48:50+02:00</time>
      </trkpt>
      <trkpt lat="44.62767" lon="3.52287">
        <ele>1308</ele>
        <time>2021-04-15T11:49:05+02:00</time>
      </trkpt>
      <trkpt lat="44.62769" lon="3.52254">
        <ele>1310</ele>
        <time>2021-04-15T11:49:21+02:00</time>
      </trkpt>
      <trkpt lat="44.62781" lon="3.52227">
        <ele>1312</ele>
        <time>2021-04-15T11:49:37+02:00</time>
      </trkpt>
      <trkpt lat="44.62794" lon="3.52201">
        <ele>1316</ele>
        <time>2021-04-15T11:49:53+02:00</time>
      </trkpt>
      <trkpt lat="44.62805" lon="3.52172">
        <ele>1318</ele>
        <time>2021-04-15T11:50:09+02:00</time>
      </trkpt>
      <trkpt lat="44.62821" lon="3.52146">
        <ele>1321</ele>
        <time>2021-04-15T11:50:26+02:00</time>
      </trkpt>
      <trkpt lat="44.62833" lon="3.52118">
        <ele>1324</ele>
        <time>2021-04-15T11:50:42+02:00</time>
      </trkpt>
      <trkpt lat="44.62842" lon="3.52088">
        <ele>1327</ele>
        <time>2021-04-15T11:50:59+02:00</time>
      </trkpt>
      <trkpt lat="44.62859" lon="3.52067">
        <ele>1331</ele>
        <time>2021-04-15T11:51:17+02:00</time>
      </trkpt>
      <trkpt lat="44.62879" lon="3.52053">
        <ele>1334</ele>
        <time>2021-04-15T11:51:34+02:00</time>
      </trkpt>
      <trkpt lat="44.62901" lon="3.52043">
        <ele>1337</ele>
        <time>2021-04-15T11:51:51+02:00</time>
      </trkpt>
      <trkpt lat="44.62925" lon="3.52037">
        <ele>1340</ele>
        <time>2021-04-15T11:52:09+02:00</time>
      </trkpt>
      <trkpt lat="44.62948" lon="3.5203">
        <ele>1342</ele>
        <time>2021-04-15T11:52:26+02:00</time>
      </trkpt>
      <trkpt lat="44.62972" lon="3.52032">
        <ele>1342</ele>
        <time>2021-04-15T11:52:42+02:00</time>
      </trkpt>
      <trkpt lat="44.62992" lon="3.52049">
        <ele>1341</ele>
        <time>2021-04-15T11:53:13+02:00</time>
      </trkpt>
      <trkpt lat="44.63009" lon="3.52072">
        <ele>1342</ele>
        <time>2021-04-15T11:53:31+02:00</time>
      </trkpt>
      <trkpt lat="44.63026" lon="3.52094">
        <ele>1343</ele>
        <time>2021-04-15T11:53:49+02:00</time>
      </trkpt>
      <trkpt lat="44.63044" lon="3.52113">
        <ele>1345</ele>
        <time>2021-04-15T11:54:06+02:00</time>
      </trkpt>
      <trkpt lat="44.63062" lon="3.52135">
        <ele>1345</ele>
        <time>2021-04-15T11:54:24+02:00</time>
      </trkpt>
      <trkpt lat="44.63082" lon="3.52154">
        <ele>1347</ele>
        <time>2021-04-15T11:54:42+02:00</time>
      </trkpt>
      <trkpt lat="44.63063" lon="3.52173">
        <ele>1350</ele>
        <time>2021-04-15T11:55:53+02:00</time>
      </trkpt>
      <trkpt lat="44.6304" lon="3.52176">
        <ele>1354</ele>
        <time>2021-04-15T11:56:11+02:00</time>
      </trkpt>
      <trkpt lat="44.63017" lon="3.52182">
        <ele>1358</ele>
        <time>2021-04-15T11:56:28+02:00</time>
      </trkpt>
      <trkpt lat="44.63006" lon="3.52209">
        <ele>1360</ele>
        <time>2021-04-15T11:56:47+02:00</time>
      </trkpt>
      <trkpt lat="44.6301" lon="3.52241">
        <ele>1364</ele>
        <time>2021-04-15T11:57:06+02:00</time>
      </trkpt>
      <trkpt lat="44.63014" lon="3.52273">
        <ele>1369</ele>
        <time>2021-04-15T11:57:30+02:00</time>
      </trkpt>
      <trkpt lat="44.63034" lon="3.52289">
        <ele>1373</ele>
        <time>2021-04-15T11:57:53+02:00</time>
      </trkpt>
      <trkpt lat="44.63052" lon="3.52308">
        <ele>1375</ele>
        <time>2021-04-15T11:58:12+02:00</time>
      </trkpt>
      <trkpt lat="44.63068" lon="3.52332">
        <ele>1376</ele>
        <time>2021-04-15T11:58:29+02:00</time>
      </trkpt>
      <trkpt lat="44.63077" lon="3.52362">
        <ele>1379</ele>
        <time>2021-04-15T11:58:46+02:00</time>
      </trkpt>
      <trkpt lat="44.63083" lon="3.52392">
        <ele>1381</ele>
        <time>2021-04-15T11:59:02+02:00</time>
      </trkpt>
      <trkpt lat="44.63084" lon="3.52425">
        <ele>1382</ele>
        <time>2021-04-15T11:59:18+02:00</time>
      </trkpt>
      <trkpt lat="44.63081" lon="3.52457">
        <ele>1383</ele>
        <time>2021-04-15T11:59:34+02:00</time>
      </trkpt>
      <trkpt lat="44.63074" lon="3.52488">
        <ele>1385</ele>
        <time>2021-04-15T11:59:50+02:00</time>
      </trkpt>
      <trkpt lat="44.63077" lon="3.52521">
        <ele>1388</ele>
        <time>2021-04-15T12:00:07+02:00</time>
      </trkpt>
      <trkpt lat="44.6307" lon="3.52553">
        <ele>1389</ele>
        <time>2021-04-15T12:00:25+02:00</time>
      </trkpt>
      <trkpt lat="44.63063" lon="3.52585">
        <ele>1390</ele>
        <time>2021-04-15T12:00:42+02:00</time>
      </trkpt>
      <trkpt lat="44.63045" lon="3.52606">
        <ele>1393</ele>
        <time>2021-04-15T12:00:59+02:00</time>
      </trkpt>
      <trkpt lat="44.63031" lon="3.52632">
        <ele>1395</ele>
        <time>2021-04-15T12:01:19+02:00</time>
      </trkpt>
      <trkpt lat="44.63016" lon="3.52656">
        <ele>1397</ele>
        <time>2021-04-15T12:01:38+02:00</time>
      </trkpt>
      <trkpt lat="44.62999" lon="3.52677">
        <ele>1398</ele>
        <time>2021-04-15T12:01:56+02:00</time>
      </trkpt>
      <trkpt lat="44.62983" lon="3.52701">
        <ele>1397</ele>
        <time>2021-04-15T12:02:22+02:00</time>
      </trkpt>
      <trkpt lat="44.62967" lon="3.52726">
        <ele>1398</ele>
        <time>2021-04-15T12:02:41+02:00</time>
      </trkpt>
      <trkpt lat="44.6295" lon="3.52748">
        <ele>1399</ele>
        <time>2021-04-15T12:02:59+02:00</time>
      </trkpt>
      <trkpt lat="44.62936" lon="3.52774">
        <ele>1399</ele>
        <time>2021-04-15T12:03:18+02:00</time>
      </trkpt>
      <trkpt lat="44.62929" lon="3.52804">
        <ele>1401</ele>
        <time>2021-04-15T12:03:42+02:00</time>
      </trkpt>
      <trkpt lat="44.62922" lon="3.52835">
        <ele>1406</ele>
        <time>2021-04-15T12:04:05+02:00</time>
      </trkpt>
      <trkpt lat="44.62907" lon="3.52859">
        <ele>1408</ele>
        <time>2021-04-15T12:04:21+02:00</time>
      </trkpt>
      <trkpt lat="44.62901" lon="3.5289">
        <ele>1409</ele>
        <time>2021-04-15T12:04:38+02:00</time>
      </trkpt>
      <trkpt lat="44.62903" lon="3.52922">
        <ele>1412</ele>
        <time>2021-04-15T12:04:56+02:00</time>
      </trkpt>
      <trkpt lat="44.62902" lon="3.52955">
        <ele>1414</ele>
        <time>2021-04-15T12:05:13+02:00</time>
      </trkpt>
      <trkpt lat="44.62904" lon="3.52987">
        <ele>1415</ele>
        <time>2021-04-15T12:05:30+02:00</time>
      </trkpt>
      <trkpt lat="44.62907" lon="3.5302">
        <ele>1418</ele>
        <time>2021-04-15T12:05:47+02:00</time>
      </trkpt>
      <trkpt lat="44.62907" lon="3.53053">
        <ele>1419</ele>
        <time>2021-04-15T12:06:04+02:00</time>
      </trkpt>
      <trkpt lat="44.62902" lon="3.53085">
        <ele>1420</ele>
        <time>2021-04-15T12:06:22+02:00</time>
      </trkpt>
      <trkpt lat="44.62902" lon="3.53118">
        <ele>1420</ele>
        <time>2021-04-15T12:06:39+02:00</time>
      </trkpt>
      <trkpt lat="44.62899" lon="3.5315">
        <ele>1422</ele>
        <time>2021-04-15T12:06:57+02:00</time>
      </trkpt>
      <trkpt lat="44.62888" lon="3.5318">
        <ele>1425</ele>
        <time>2021-04-15T12:07:16+02:00</time>
      </trkpt>
      <trkpt lat="44.62875" lon="3.53207">
        <ele>1428</ele>
        <time>2021-04-15T12:07:35+02:00</time>
      </trkpt>
      <trkpt lat="44.62862" lon="3.53234">
        <ele>1431</ele>
        <time>2021-04-15T12:07:54+02:00</time>
      </trkpt>
      <trkpt lat="44.62849" lon="3.5326">
        <ele>1436</ele>
        <time>2021-04-15T12:08:15+02:00</time>
      </trkpt>
      <trkpt lat="44.62839" lon="3.53289">
        <ele>1437</ele>
        <time>2021-04-15T12:08:34+02:00</time>
      </trkpt>
      <trkpt lat="44.62825" lon="3.53316">
        <ele>1440</ele>
        <time>2021-04-15T12:08:52+02:00</time>
      </trkpt>
      <trkpt lat="44.62813" lon="3.53344">
        <ele>1443</ele>
        <time>2021-04-15T12:09:11+02:00</time>
      </trkpt>
      <trkpt lat="44.62802" lon="3.53372">
        <ele>1446</ele>
        <time>2021-04-15T12:09:31+02:00</time>
      </trkpt>
      <trkpt lat="44.62799" lon="3.53405">
        <ele>1448</ele>
        <time>2021-04-15T12:09:48+02:00</time>
      </trkpt>
      <trkpt lat="44.62796" lon="3.53437">
        <ele>1449</ele>
        <time>2021-04-15T12:10:06+02:00</time>
      </trkpt>
      <trkpt lat="44.62793" lon="3.53468">
        <ele>1449</ele>
        <time>2021-04-15T12:10:22+02:00</time>
      </trkpt>
      <trkpt lat="44.62794" lon="3.53502">
        <ele>1451</ele>
        <time>2021-04-15T12:10:38+02:00</time>
      </trkpt>
      <trkpt lat="44.62797" lon="3.53534">
        <ele>1452</ele>
        <time>2021-04-15T12:10:55+02:00</time>
      </trkpt>
      <trkpt lat="44.628" lon="3.53566">
        <ele>1453</ele>
        <time>2021-04-15T12:11:12+02:00</time>
      </trkpt>
      <trkpt lat="44.62806" lon="3.53597">
        <ele>1454</ele>
        <time>2021-04-15T12:11:28+02:00</time>
      </trkpt>
      <trkpt lat="44.62814" lon="3.53627">
        <ele>1455</ele>
        <time>2021-04-15T12:12:16+02:00</time>
      </trkpt>
      <trkpt lat="44.62824" lon="3.53657">
        <ele>1454</ele>
        <time>2021-04-15T12:12:37+02:00</time>
      </trkpt>
      <trkpt lat="44.62836" lon="3.53684">
        <ele>1454</ele>
        <time>2021-04-15T12:13:06+02:00</time>
      </trkpt>
      <trkpt lat="44.62848" lon="3.53712">
        <ele>1455</ele>
        <time>2021-04-15T12:13:30+02:00</time>
      </trkpt>
      <trkpt lat="44.62861" lon="3.53738">
        <ele>1455</ele>
        <time>2021-04-15T12:13:47+02:00</time>
      </trkpt>
      <trkpt lat="44.62877" lon="3.53762">
        <ele>1454</ele>
        <time>2021-04-15T12:14:04+02:00</time>
      </trkpt>
      <trkpt lat="44.62891" lon="3.53788">
        <ele>1453</ele>
        <time>2021-04-15T12:14:21+02:00</time>
      </trkpt>
      <trkpt lat="44.62904" lon="3.53814">
        <ele>1454</ele>
        <time>2021-04-15T12:14:37+02:00</time>
      </trkpt>
      <trkpt lat="44.62919" lon="3.5384">
        <ele>1454</ele>
        <time>2021-04-15T12:14:53+02:00</time>
      </trkpt>
      <trkpt lat="44.62934" lon="3.53864">
        <ele>1453</ele>
        <time>2021-04-15T12:15:10+02:00</time>
      </trkpt>
      <trkpt lat="44.62949" lon="3.5389">
        <ele>1453</ele>
        <time>2021-04-15T12:15:26+02:00</time>
      </trkpt>
      <trkpt lat="44.62967" lon="3.53912">
        <ele>1452</ele>
        <time>2021-04-15T12:15:42+02:00</time>
      </trkpt>
      <trkpt lat="44.6298" lon="3.5394">
        <ele>1453</ele>
        <time>2021-04-15T12:15:58+02:00</time>
      </trkpt>
      <trkpt lat="44.62988" lon="3.53971">
        <ele>1453</ele>
        <time>2021-04-15T12:16:16+02:00</time>
      </trkpt>
      <trkpt lat="44.62989" lon="3.54005">
        <ele>1452</ele>
        <time>2021-04-15T12:16:32+02:00</time>
      </trkpt>
      <trkpt lat="44.62994" lon="3.54036">
        <ele>1451</ele>
        <time>2021-04-15T12:16:50+02:00</time>
      </trkpt>
      <trkpt lat="44.62993" lon="3.54068">
        <ele>1448</ele>
        <time>2021-04-15T12:17:07+02:00</time>
      </trkpt>
      <trkpt lat="44.62996" lon="3.541">
        <ele>1449</ele>
        <time>2021-04-15T12:17:25+02:00</time>
      </trkpt>
      <trkpt lat="44.62994" lon="3.54132">
        <ele>1448</ele>
        <time>2021-04-15T12:17:42+02:00</time>
      </trkpt>
      <trkpt lat="44.62992" lon="3.54164">
        <ele>1448</ele>
        <time>2021-04-15T12:17:58+02:00</time>
      </trkpt>
      <trkpt lat="44.62978" lon="3.54188">
        <ele>1448</ele>
        <time>2021-04-15T12:18:16+02:00</time>
      </trkpt>
      <trkpt lat="44.62963" lon="3.54213">
        <ele>1449</ele>
        <time>2021-04-15T12:18:34+02:00</time>
      </trkpt>
      <trkpt lat="44.62948" lon="3.54238">
        <ele>1449</ele>
        <time>2021-04-15T12:18:53+02:00</time>
      </trkpt>
      <trkpt lat="44.62935" lon="3.54264">
        <ele>1450</ele>
        <time>2021-04-15T12:19:12+02:00</time>
      </trkpt>
      <trkpt lat="44.62929" lon="3.54295">
        <ele>1452</ele>
        <time>2021-04-15T12:19:30+02:00</time>
      </trkpt>
      <trkpt lat="44.62904" lon="3.54338">
        <ele>1448</ele>
        <time>2021-04-15T12:27:07+02:00</time>
      </trkpt>
      <trkpt lat="44.62898" lon="3.54369">
        <ele>1449</ele>
        <time>2021-04-15T12:27:38+02:00</time>
      </trkpt>
      <trkpt lat="44.62896" lon="3.54401">
        <ele>1449</ele>
        <time>2021-04-15T12:27:54+02:00</time>
      </trkpt>
      <trkpt lat="44.62903" lon="3.54432">
        <ele>1450</ele>
        <time>2021-04-15T12:28:09+02:00</time>
      </trkpt>
      <trkpt lat="44.6291" lon="3.54463">
        <ele>1451</ele>
        <time>2021-04-15T12:28:25+02:00</time>
      </trkpt>
      <trkpt lat="44.62919" lon="3.54495">
        <ele>1451</ele>
        <time>2021-04-15T12:28:40+02:00</time>
      </trkpt>
      <trkpt lat="44.62927" lon="3.54525">
        <ele>1452</ele>
        <time>2021-04-15T12:28:56+02:00</time>
      </trkpt>
      <trkpt lat="44.62934" lon="3.54556">
        <ele>1452</ele>
        <time>2021-04-15T12:29:11+02:00</time>
      </trkpt>
      <trkpt lat="44.62941" lon="3.54586">
        <ele>1451</ele>
        <time>2021-04-15T12:29:26+02:00</time>
      </trkpt>
      <trkpt lat="44.62945" lon="3.54619">
        <ele>1449</ele>
        <time>2021-04-15T12:29:42+02:00</time>
      </trkpt>
      <trkpt lat="44.62954" lon="3.54647">
        <ele>1446</ele>
        <time>2021-04-15T12:29:58+02:00</time>
      </trkpt>
      <trkpt lat="44.62965" lon="3.54676">
        <ele>1442</ele>
        <time>2021-04-15T12:30:14+02:00</time>
      </trkpt>
      <trkpt lat="44.62976" lon="3.54705">
        <ele>1438</ele>
        <time>2021-04-15T12:30:29+02:00</time>
      </trkpt>
      <trkpt lat="44.62985" lon="3.54735">
        <ele>1435</ele>
        <time>2021-04-15T12:30:43+02:00</time>
      </trkpt>
      <trkpt lat="44.62987" lon="3.54768">
        <ele>1432</ele>
        <time>2021-04-15T12:30:58+02:00</time>
      </trkpt>
      <trkpt lat="44.62987" lon="3.54802">
        <ele>1428</ele>
        <time>2021-04-15T12:31:15+02:00</time>
      </trkpt>
      <trkpt lat="44.62989" lon="3.54835">
        <ele>1423</ele>
        <time>2021-04-15T12:31:31+02:00</time>
      </trkpt>
      <trkpt lat="44.62992" lon="3.54867">
        <ele>1419</ele>
        <time>2021-04-15T12:31:46+02:00</time>
      </trkpt>
      <trkpt lat="44.63005" lon="3.54892">
        <ele>1416</ele>
        <time>2021-04-15T12:32:01+02:00</time>
      </trkpt>
      <trkpt lat="44.6302" lon="3.54916">
        <ele>1414</ele>
        <time>2021-04-15T12:32:15+02:00</time>
      </trkpt>
      <trkpt lat="44.6304" lon="3.54933">
        <ele>1411</ele>
        <time>2021-04-15T12:32:30+02:00</time>
      </trkpt>
      <trkpt lat="44.63061" lon="3.54945">
        <ele>1408</ele>
        <time>2021-04-15T12:32:46+02:00</time>
      </trkpt>
      <trkpt lat="44.63084" lon="3.54953">
        <ele>1404</ele>
        <time>2021-04-15T12:33:01+02:00</time>
      </trkpt>
      <trkpt lat="44.63106" lon="3.54962">
        <ele>1402</ele>
        <time>2021-04-15T12:33:17+02:00</time>
      </trkpt>
      <trkpt lat="44.63128" lon="3.54972">
        <ele>1400</ele>
        <time>2021-04-15T12:33:32+02:00</time>
      </trkpt>
      <trkpt lat="44.63148" lon="3.54987">
        <ele>1397</ele>
        <time>2021-04-15T12:33:46+02:00</time>
      </trkpt>
      <trkpt lat="44.63169" lon="3.54998">
        <ele>1399</ele>
        <time>2021-04-15T12:34:01+02:00</time>
      </trkpt>
      <trkpt lat="44.63186" lon="3.55019">
        <ele>1399</ele>
        <time>2021-04-15T12:34:20+02:00</time>
      </trkpt>
      <trkpt lat="44.63173" lon="3.55045">
        <ele>1400</ele>
        <time>2021-04-15T12:34:36+02:00</time>
      </trkpt>
      <trkpt lat="44.63157" lon="3.55069">
        <ele>1401</ele>
        <time>2021-04-15T12:34:52+02:00</time>
      </trkpt>
      <trkpt lat="44.63144" lon="3.55096">
        <ele>1401</ele>
        <time>2021-04-15T12:35:10+02:00</time>
      </trkpt>
      <trkpt lat="44.6313" lon="3.55122">
        <ele>1400</ele>
        <time>2021-04-15T12:35:25+02:00</time>
      </trkpt>
      <trkpt lat="44.63123" lon="3.55153">
        <ele>1400</ele>
        <time>2021-04-15T12:35:41+02:00</time>
      </trkpt>
      <trkpt lat="44.63115" lon="3.55184">
        <ele>1401</ele>
        <time>2021-04-15T12:35:58+02:00</time>
      </trkpt>
      <trkpt lat="44.63107" lon="3.55216">
        <ele>1401</ele>
        <time>2021-04-15T12:36:13+02:00</time>
      </trkpt>
      <trkpt lat="44.63107" lon="3.55249">
        <ele>1400</ele>
        <time>2021-04-15T12:36:27+02:00</time>
      </trkpt>
      <trkpt lat="44.63122" lon="3.55274">
        <ele>1399</ele>
        <time>2021-04-15T12:36:42+02:00</time>
      </trkpt>
      <trkpt lat="44.63137" lon="3.55299">
        <ele>1399</ele>
        <time>2021-04-15T12:36:58+02:00</time>
      </trkpt>
      <trkpt lat="44.63141" lon="3.55331">
        <ele>1398</ele>
        <time>2021-04-15T12:37:13+02:00</time>
      </trkpt>
      <trkpt lat="44.63134" lon="3.55363">
        <ele>1398</ele>
        <time>2021-04-15T12:37:29+02:00</time>
      </trkpt>
      <trkpt lat="44.63127" lon="3.55395">
        <ele>1398</ele>
        <time>2021-04-15T12:37:45+02:00</time>
      </trkpt>
      <trkpt lat="44.63121" lon="3.55427">
        <ele>1398</ele>
        <time>2021-04-15T12:38:02+02:00</time>
      </trkpt>
      <trkpt lat="44.63116" lon="3.55459">
        <ele>1399</ele>
        <time>2021-04-15T12:38:17+02:00</time>
      </trkpt>
      <trkpt lat="44.63108" lon="3.5549">
        <ele>1401</ele>
        <time>2021-04-15T12:38:47+02:00</time>
      </trkpt>
      <trkpt lat="44.63097" lon="3.55519">
        <ele>1399</ele>
        <time>2021-04-15T12:39:06+02:00</time>
      </trkpt>
      <trkpt lat="44.63083" lon="3.55545">
        <ele>1399</ele>
        <time>2021-04-15T12:39:23+02:00</time>
      </trkpt>
      <trkpt lat="44.63069" lon="3.5557">
        <ele>1399</ele>
        <time>2021-04-15T12:39:37+02:00</time>
      </trkpt>
      <trkpt lat="44.63054" lon="3.55595">
        <ele>1399</ele>
        <time>2021-04-15T12:39:52+02:00</time>
      </trkpt>
      <trkpt lat="44.63041" lon="3.55621">
        <ele>1398</ele>
        <time>2021-04-15T12:40:08+02:00</time>
      </trkpt>
      <trkpt lat="44.63026" lon="3.55646">
        <ele>1399</ele>
        <time>2021-04-15T12:40:23+02:00</time>
      </trkpt>
      <trkpt lat="44.63012" lon="3.55673">
        <ele>1399</ele>
        <time>2021-04-15T12:40:39+02:00</time>
      </trkpt>
      <trkpt lat="44.63001" lon="3.55701">
        <ele>1400</ele>
        <time>2021-04-15T12:40:55+02:00</time>
      </trkpt>
      <trkpt lat="44.62988" lon="3.55728">
        <ele>1398</ele>
        <time>2021-04-15T12:41:11+02:00</time>
      </trkpt>
      <trkpt lat="44.62975" lon="3.55753">
        <ele>1399</ele>
        <time>2021-04-15T12:41:27+02:00</time>
      </trkpt>
      <trkpt lat="44.62962" lon="3.55781">
        <ele>1398</ele>
        <time>2021-04-15T12:41:43+02:00</time>
      </trkpt>
      <trkpt lat="44.62948" lon="3.55807">
        <ele>1399</ele>
        <time>2021-04-15T12:41:58+02:00</time>
      </trkpt>
      <trkpt lat="44.62935" lon="3.55834">
        <ele>1399</ele>
        <time>2021-04-15T12:42:14+02:00</time>
      </trkpt>
      <trkpt lat="44.6292" lon="3.55859">
        <ele>1398</ele>
        <time>2021-04-15T12:42:29+02:00</time>
      </trkpt>
      <trkpt lat="44.62906" lon="3.55885">
        <ele>1398</ele>
        <time>2021-04-15T12:42:45+02:00</time>
      </trkpt>
      <trkpt lat="44.6289" lon="3.55909">
        <ele>1397</ele>
        <time>2021-04-15T12:43:01+02:00</time>
      </trkpt>
      <trkpt lat="44.62868" lon="3.55924">
        <ele>1396</ele>
        <time>2021-04-15T12:43:16+02:00</time>
      </trkpt>
      <trkpt lat="44.62849" lon="3.5594">
        <ele>1396</ele>
        <time>2021-04-15T12:43:31+02:00</time>
      </trkpt>
      <trkpt lat="44.6283" lon="3.55957">
        <ele>1396</ele>
        <time>2021-04-15T12:43:48+02:00</time>
      </trkpt>
      <trkpt lat="44.62809" lon="3.55974">
        <ele>1395</ele>
        <time>2021-04-15T12:44:03+02:00</time>
      </trkpt>
      <trkpt lat="44.62791" lon="3.55994">
        <ele>1394</ele>
        <time>2021-04-15T12:44:19+02:00</time>
      </trkpt>
      <trkpt lat="44.62776" lon="3.56018">
        <ele>1393</ele>
        <time>2021-04-15T12:44:34+02:00</time>
      </trkpt>
      <trkpt lat="44.62773" lon="3.5605">
        <ele>1393</ele>
        <time>2021-04-15T12:44:48+02:00</time>
      </trkpt>
      <trkpt lat="44.62754" lon="3.56069">
        <ele>1394</ele>
        <time>2021-04-15T12:45:11+02:00</time>
      </trkpt>
      <trkpt lat="44.62732" lon="3.56073">
        <ele>1393</ele>
        <time>2021-04-15T12:45:27+02:00</time>
      </trkpt>
      <trkpt lat="44.62711" lon="3.56087">
        <ele>1393</ele>
        <time>2021-04-15T12:45:48+02:00</time>
      </trkpt>
      <trkpt lat="44.6269" lon="3.56099">
        <ele>1391</ele>
        <time>2021-04-15T12:46:10+02:00</time>
      </trkpt>
      <trkpt lat="44.62668" lon="3.56107">
        <ele>1392</ele>
        <time>2021-04-15T12:46:28+02:00</time>
      </trkpt>
      <trkpt lat="44.62646" lon="3.56115">
        <ele>1391</ele>
        <time>2021-04-15T12:46:47+02:00</time>
      </trkpt>
      <trkpt lat="44.62623" lon="3.56115">
        <ele>1391</ele>
        <time>2021-04-15T12:47:08+02:00</time>
      </trkpt>
      <trkpt lat="44.62571" lon="3.56167">
        <ele>1389</ele>
        <time>2021-04-15T12:54:32+02:00</time>
      </trkpt>
      <trkpt lat="44.62574" lon="3.56136">
        <ele>1386</ele>
        <time>2021-04-15T12:54:56+02:00</time>
      </trkpt>
      <trkpt lat="44.62552" lon="3.56128">
        <ele>1388</ele>
        <time>2021-04-15T12:55:14+02:00</time>
      </trkpt>
      <trkpt lat="44.62529" lon="3.56127">
        <ele>1387</ele>
        <time>2021-04-15T12:55:43+02:00</time>
      </trkpt>
      <trkpt lat="44.62506" lon="3.56125">
        <ele>1387</ele>
        <time>2021-04-15T12:56:26+02:00</time>
      </trkpt>
      <trkpt lat="44.62483" lon="3.56121">
        <ele>1386</ele>
        <time>2021-04-15T12:56:50+02:00</time>
      </trkpt>
      <trkpt lat="44.62461" lon="3.56115">
        <ele>1386</ele>
        <time>2021-04-15T12:57:27+02:00</time>
      </trkpt>
      <trkpt lat="44.62438" lon="3.56109">
        <ele>1386</ele>
        <time>2021-04-15T12:57:47+02:00</time>
      </trkpt>
      <trkpt lat="44.62415" lon="3.56101">
        <ele>1386</ele>
        <time>2021-04-15T12:58:06+02:00</time>
      </trkpt>
      <trkpt lat="44.62393" lon="3.56091">
        <ele>1385</ele>
        <time>2021-04-15T12:58:24+02:00</time>
      </trkpt>
      <trkpt lat="44.62371" lon="3.56079">
        <ele>1387</ele>
        <time>2021-04-15T12:58:43+02:00</time>
      </trkpt>
      <trkpt lat="44.62364" lon="3.56048">
        <ele>1388</ele>
        <time>2021-04-15T12:59:02+02:00</time>
      </trkpt>
      <trkpt lat="44.62352" lon="3.5602">
        <ele>1388</ele>
        <time>2021-04-15T12:59:19+02:00</time>
      </trkpt>
      <trkpt lat="44.62333" lon="3.56002">
        <ele>1390</ele>
        <time>2021-04-15T12:59:36+02:00</time>
      </trkpt>
      <trkpt lat="44.6231" lon="3.55992">
        <ele>1390</ele>
        <time>2021-04-15T12:59:53+02:00</time>
      </trkpt>
      <trkpt lat="44.62288" lon="3.55982">
        <ele>1390</ele>
        <time>2021-04-15T13:00:09+02:00</time>
      </trkpt>
      <trkpt lat="44.62266" lon="3.5597">
        <ele>1391</ele>
        <time>2021-04-15T13:00:23+02:00</time>
      </trkpt>
      <trkpt lat="44.62244" lon="3.55959">
        <ele>1394</ele>
        <time>2021-04-15T13:00:38+02:00</time>
      </trkpt>
      <trkpt lat="44.6223" lon="3.55935">
        <ele>1395</ele>
        <time>2021-04-15T13:00:56+02:00</time>
      </trkpt>
      <trkpt lat="44.62225" lon="3.55903">
        <ele>1396</ele>
        <time>2021-04-15T13:01:15+02:00</time>
      </trkpt>
      <trkpt lat="44.6222" lon="3.5587">
        <ele>1395</ele>
        <time>2021-04-15T13:01:35+02:00</time>
      </trkpt>
      <trkpt lat="44.62208" lon="3.55842">
        <ele>1393</ele>
        <time>2021-04-15T13:01:51+02:00</time>
      </trkpt>
      <trkpt lat="44.62212" lon="3.5581">
        <ele>1390</ele>
        <time>2021-04-15T13:02:10+02:00</time>
      </trkpt>
      <trkpt lat="44.62225" lon="3.55783">
        <ele>1387</ele>
        <time>2021-04-15T13:02:28+02:00</time>
      </trkpt>
      <trkpt lat="44.62242" lon="3.5576">
        <ele>1384</ele>
        <time>2021-04-15T13:02:45+02:00</time>
      </trkpt>
      <trkpt lat="44.62259" lon="3.55739">
        <ele>1382</ele>
        <time>2021-04-15T13:02:59+02:00</time>
      </trkpt>
      <trkpt lat="44.62276" lon="3.55716">
        <ele>1380</ele>
        <time>2021-04-15T13:03:15+02:00</time>
      </trkpt>
      <trkpt lat="44.62291" lon="3.55692">
        <ele>1376</ele>
        <time>2021-04-15T13:03:30+02:00</time>
      </trkpt>
      <trkpt lat="44.62304" lon="3.55665">
        <ele>1374</ele>
        <time>2021-04-15T13:03:45+02:00</time>
      </trkpt>
      <trkpt lat="44.62319" lon="3.5564">
        <ele>1372</ele>
        <time>2021-04-15T13:04:00+02:00</time>
      </trkpt>
      <trkpt lat="44.62338" lon="3.5562">
        <ele>1370</ele>
        <time>2021-04-15T13:04:15+02:00</time>
      </trkpt>
      <trkpt lat="44.62358" lon="3.55603">
        <ele>1369</ele>
        <time>2021-04-15T13:04:31+02:00</time>
      </trkpt>
      <trkpt lat="44.6238" lon="3.55593">
        <ele>1367</ele>
        <time>2021-04-15T13:04:48+02:00</time>
      </trkpt>
      <trkpt lat="44.62377" lon="3.55561">
        <ele>1362</ele>
        <time>2021-04-15T13:05:11+02:00</time>
      </trkpt>
      <trkpt lat="44.62359" lon="3.5554">
        <ele>1358</ele>
        <time>2021-04-15T13:05:26+02:00</time>
      </trkpt>
      <trkpt lat="44.62341" lon="3.55522">
        <ele>1354</ele>
        <time>2021-04-15T13:05:42+02:00</time>
      </trkpt>
      <trkpt lat="44.62338" lon="3.5549">
        <ele>1352</ele>
        <time>2021-04-15T13:05:57+02:00</time>
      </trkpt>
      <trkpt lat="44.62351" lon="3.55461">
        <ele>1348</ele>
        <time>2021-04-15T13:06:15+02:00</time>
      </trkpt>
      <trkpt lat="44.62366" lon="3.55437">
        <ele>1347</ele>
        <time>2021-04-15T13:06:30+02:00</time>
      </trkpt>
      <trkpt lat="44.62383" lon="3.55415">
        <ele>1345</ele>
        <time>2021-04-15T13:06:44+02:00</time>
      </trkpt>
      <trkpt lat="44.624" lon="3.55395">
        <ele>1343</ele>
        <time>2021-04-15T13:07:00+02:00</time>
      </trkpt>
      <trkpt lat="44.62421" lon="3.5538">
        <ele>1341</ele>
        <time>2021-04-15T13:07:17+02:00</time>
      </trkpt>
      <trkpt lat="44.62442" lon="3.55366">
        <ele>1339</ele>
        <time>2021-04-15T13:07:31+02:00</time>
      </trkpt>
      <trkpt lat="44.62462" lon="3.55348">
        <ele>1338</ele>
        <time>2021-04-15T13:07:47+02:00</time>
      </trkpt>
      <trkpt lat="44.62477" lon="3.55321">
        <ele>1336</ele>
        <time>2021-04-15T13:08:03+02:00</time>
      </trkpt>
      <trkpt lat="44.62491" lon="3.55294">
        <ele>1335</ele>
        <time>2021-04-15T13:08:19+02:00</time>
      </trkpt>
      <trkpt lat="44.62501" lon="3.55265">
        <ele>1334</ele>
        <time>2021-04-15T13:08:35+02:00</time>
      </trkpt>
      <trkpt lat="44.62506" lon="3.55233">
        <ele>1331</ele>
        <time>2021-04-15T13:08:51+02:00</time>
      </trkpt>
      <trkpt lat="44.62493" lon="3.55206">
        <ele>1327</ele>
        <time>2021-04-15T13:09:06+02:00</time>
      </trkpt>
      <trkpt lat="44.62476" lon="3.55183">
        <ele>1323</ele>
        <time>2021-04-15T13:09:22+02:00</time>
      </trkpt>
      <trkpt lat="44.62468" lon="3.55152">
        <ele>1322</ele>
        <time>2021-04-15T13:09:37+02:00</time>
      </trkpt>
      <trkpt lat="44.62464" lon="3.5512">
        <ele>1318</ele>
        <time>2021-04-15T13:09:52+02:00</time>
      </trkpt>
      <trkpt lat="44.62463" lon="3.55089">
        <ele>1317</ele>
        <time>2021-04-15T13:10:06+02:00</time>
      </trkpt>
      <trkpt lat="44.62455" lon="3.55059">
        <ele>1314</ele>
        <time>2021-04-15T13:10:21+02:00</time>
      </trkpt>
      <trkpt lat="44.62454" lon="3.55025">
        <ele>1313</ele>
        <time>2021-04-15T13:10:38+02:00</time>
      </trkpt>
      <trkpt lat="44.6246" lon="3.54994">
        <ele>1311</ele>
        <time>2021-04-15T13:10:52+02:00</time>
      </trkpt>
      <trkpt lat="44.62461" lon="3.54962">
        <ele>1308</ele>
        <time>2021-04-15T13:11:07+02:00</time>
      </trkpt>
      <trkpt lat="44.62455" lon="3.54931">
        <ele>1305</ele>
        <time>2021-04-15T13:11:22+02:00</time>
      </trkpt>
      <trkpt lat="44.62447" lon="3.549">
        <ele>1302</ele>
        <time>2021-04-15T13:11:38+02:00</time>
      </trkpt>
      <trkpt lat="44.62441" lon="3.54868">
        <ele>1301</ele>
        <time>2021-04-15T13:11:54+02:00</time>
      </trkpt>
      <trkpt lat="44.62435" lon="3.54836">
        <ele>1299</ele>
        <time>2021-04-15T13:12:10+02:00</time>
      </trkpt>
      <trkpt lat="44.62433" lon="3.54805">
        <ele>1298</ele>
        <time>2021-04-15T13:12:26+02:00</time>
      </trkpt>
      <trkpt lat="44.62433" lon="3.54771">
        <ele>1297</ele>
        <time>2021-04-15T13:12:43+02:00</time>
      </trkpt>
      <trkpt lat="44.62432" lon="3.54739">
        <ele>1296</ele>
        <time>2021-04-15T13:12:58+02:00</time>
      </trkpt>
      <trkpt lat="44.62439" lon="3.54709">
        <ele>1295</ele>
        <time>2021-04-15T13:13:15+02:00</time>
      </trkpt>
      <trkpt lat="44.62439" lon="3.54677">
        <ele>1294</ele>
        <time>2021-04-15T13:13:33+02:00</time>
      </trkpt>
      <trkpt lat="44.62437" lon="3.54645">
        <ele>1293</ele>
        <time>2021-04-15T13:13:52+02:00</time>
      </trkpt>
      <trkpt lat="44.62448" lon="3.54617">
        <ele>1293</ele>
        <time>2021-04-15T13:14:07+02:00</time>
      </trkpt>
      <trkpt lat="44.6244" lon="3.54585">
        <ele>1294</ele>
        <time>2021-04-15T13:14:28+02:00</time>
      </trkpt>
      <trkpt lat="44.62431" lon="3.54555">
        <ele>1294</ele>
        <time>2021-04-15T13:14:45+02:00</time>
      </trkpt>
      <trkpt lat="44.62427" lon="3.54523">
        <ele>1293</ele>
        <time>2021-04-15T13:15:02+02:00</time>
      </trkpt>
      <trkpt lat="44.62421" lon="3.54492">
        <ele>1292</ele>
        <time>2021-04-15T13:15:19+02:00</time>
      </trkpt>
      <trkpt lat="44.62414" lon="3.54461">
        <ele>1292</ele>
        <time>2021-04-15T13:15:35+02:00</time>
      </trkpt>
      <trkpt lat="44.62407" lon="3.5443">
        <ele>1292</ele>
        <time>2021-04-15T13:15:52+02:00</time>
      </trkpt>
      <trkpt lat="44.62399" lon="3.54399">
        <ele>1291</ele>
        <time>2021-04-15T13:16:09+02:00</time>
      </trkpt>
      <trkpt lat="44.62386" lon="3.54372">
        <ele>1291</ele>
        <time>2021-04-15T13:16:25+02:00</time>
      </trkpt>
      <trkpt lat="44.62371" lon="3.54348">
        <ele>1291</ele>
        <time>2021-04-15T13:16:41+02:00</time>
      </trkpt>
      <trkpt lat="44.62361" lon="3.54318">
        <ele>1290</ele>
        <time>2021-04-15T13:16:58+02:00</time>
      </trkpt>
      <trkpt lat="44.62353" lon="3.54288">
        <ele>1291</ele>
        <time>2021-04-15T13:17:15+02:00</time>
      </trkpt>
      <trkpt lat="44.62347" lon="3.54257">
        <ele>1292</ele>
        <time>2021-04-15T13:17:31+02:00</time>
      </trkpt>
      <trkpt lat="44.62349" lon="3.54224">
        <ele>1291</ele>
        <time>2021-04-15T13:17:48+02:00</time>
      </trkpt>
      <trkpt lat="44.62347" lon="3.54192">
        <ele>1292</ele>
        <time>2021-04-15T13:18:05+02:00</time>
      </trkpt>
      <trkpt lat="44.62349" lon="3.54159">
        <ele>1292</ele>
        <time>2021-04-15T13:18:21+02:00</time>
      </trkpt>
      <trkpt lat="44.62352" lon="3.54128">
        <ele>1291</ele>
        <time>2021-04-15T13:18:38+02:00</time>
      </trkpt>
      <trkpt lat="44.62356" lon="3.54096">
        <ele>1290</ele>
        <time>2021-04-15T13:18:54+02:00</time>
      </trkpt>
      <trkpt lat="44.62359" lon="3.54064">
        <ele>1290</ele>
        <time>2021-04-15T13:19:11+02:00</time>
      </trkpt>
      <trkpt lat="44.62356" lon="3.54031">
        <ele>1291</ele>
        <time>2021-04-15T13:19:28+02:00</time>
      </trkpt>
      <trkpt lat="44.6235" lon="3.54001">
        <ele>1290</ele>
        <time>2021-04-15T13:19:44+02:00</time>
      </trkpt>
      <trkpt lat="44.62343" lon="3.53971">
        <ele>1290</ele>
        <time>2021-04-15T13:20:00+02:00</time>
      </trkpt>
      <trkpt lat="44.62335" lon="3.53941">
        <ele>1290</ele>
        <time>2021-04-15T13:20:16+02:00</time>
      </trkpt>
      <trkpt lat="44.62323" lon="3.53913">
        <ele>1290</ele>
        <time>2021-04-15T13:20:34+02:00</time>
      </trkpt>
      <trkpt lat="44.62313" lon="3.53883">
        <ele>1291</ele>
        <time>2021-04-15T13:20:50+02:00</time>
      </trkpt>
      <trkpt lat="44.62301" lon="3.53855">
        <ele>1291</ele>
        <time>2021-04-15T13:21:07+02:00</time>
      </trkpt>
      <trkpt lat="44.62285" lon="3.5383">
        <ele>1291</ele>
        <time>2021-04-15T13:21:23+02:00</time>
      </trkpt>
      <trkpt lat="44.62275" lon="3.53802">
        <ele>1291</ele>
        <time>2021-04-15T13:21:39+02:00</time>
      </trkpt>
      <trkpt lat="44.62271" lon="3.53771">
        <ele>1291</ele>
        <time>2021-04-15T13:21:56+02:00</time>
      </trkpt>
      <trkpt lat="44.62261" lon="3.53741">
        <ele>1292</ele>
        <time>2021-04-15T13:22:13+02:00</time>
      </trkpt>
      <trkpt lat="44.62248" lon="3.53714">
        <ele>1291</ele>
        <time>2021-04-15T13:22:29+02:00</time>
      </trkpt>
      <trkpt lat="44.62237" lon="3.53686">
        <ele>1291</ele>
        <time>2021-04-15T13:22:45+02:00</time>
      </trkpt>
      <trkpt lat="44.62227" lon="3.53658">
        <ele>1289</ele>
        <time>2021-04-15T13:23:02+02:00</time>
      </trkpt>
      <trkpt lat="44.62217" lon="3.53629">
        <ele>1288</ele>
        <time>2021-04-15T13:23:18+02:00</time>
      </trkpt>
      <trkpt lat="44.62211" lon="3.53597">
        <ele>1287</ele>
        <time>2021-04-15T13:23:34+02:00</time>
      </trkpt>
      <trkpt lat="44.62203" lon="3.53565">
        <ele>1286</ele>
        <time>2021-04-15T13:23:51+02:00</time>
      </trkpt>
      <trkpt lat="44.62194" lon="3.53534">
        <ele>1284</ele>
        <time>2021-04-15T13:24:08+02:00</time>
      </trkpt>
      <trkpt lat="44.62191" lon="3.53502">
        <ele>1283</ele>
        <time>2021-04-15T13:24:26+02:00</time>
      </trkpt>
    </trkseg>
  </trk>
</gpx>